createdAt,value
2023-03-03T00:00:07.596Z,100.00
2023-03-03T00:02:40.541Z,100.00
2023-03-03T00:05:07.507Z,100.00
2023-03-03T00:07:34.079Z,100.00
2023-03-03T00:10:00.758Z,100.00
2023-03-03T00:12:29.765Z,100.00
2023-03-03T00:14:56.906Z,100.00
2023-03-03T00:17:26.255Z,100.00
2023-03-03T00:19:53.444Z,100.00
2023-03-03T00:22:40.161Z,100.00
2023-03-03T00:25:31.403Z,100.00
2023-03-03T00:28:22.405Z,100.00
2023-03-03T00:30:49.361Z,100.00
2023-03-03T00:33:33.964Z,100.00
2023-03-03T00:36:16.340Z,100.00
2023-03-03T00:38:43.487Z,100.00
2023-03-03T00:41:27.413Z,100.00
2023-03-03T00:43:54.556Z,100.00
2023-03-03T00:46:23.884Z,100.00
2023-03-03T00:48:51.443Z,100.00
2023-03-03T00:51:28.243Z,100.00
2023-03-03T00:53:56.236Z,100.00
2023-03-03T00:56:23.432Z,100.00
2023-03-03T00:58:50.947Z,100.00
2023-03-03T01:01:19.766Z,100.00
2023-03-03T01:03:50.583Z,100.00
2023-03-03T01:06:17.183Z,100.00
2023-03-03T01:08:43.915Z,100.00
2023-03-03T01:11:16.407Z,100.00
2023-03-03T01:13:46.300Z,100.00
2023-03-03T01:16:13.307Z,100.00
2023-03-03T01:18:41.765Z,100.00
2023-03-03T01:21:09.408Z,100.00
2023-03-03T01:23:36.240Z,100.00
2023-03-03T01:26:04.883Z,100.00
2023-03-03T01:28:33.174Z,100.00
2023-03-03T01:31:04.845Z,100.00
2023-03-03T01:33:32.895Z,100.00
2023-03-03T01:35:59.562Z,100.00
2023-03-03T01:38:26.668Z,100.00
2023-03-03T01:40:55.217Z,100.00
2023-03-03T01:43:22.273Z,100.00
2023-03-03T01:45:48.828Z,100.00
2023-03-03T01:48:25.280Z,100.00
2023-03-03T01:51:01.794Z,100.00
2023-03-03T01:53:30.632Z,100.00
2023-03-03T01:55:57.602Z,100.00
2023-03-03T01:58:33.489Z,100.00
2023-03-03T02:01:05.520Z,100.00
2023-03-03T02:03:33.510Z,100.00
2023-03-03T02:06:05.992Z,100.00
2023-03-03T02:08:43.006Z,100.00
2023-03-03T02:11:11.031Z,100.00
2023-03-03T02:13:37.695Z,100.00
2023-03-03T02:16:04.670Z,100.00
2023-03-03T02:18:31.658Z,100.00
2023-03-03T02:21:11.751Z,100.00
2023-03-03T02:24:00.538Z,100.00
2023-03-03T02:26:29.854Z,100.00
2023-03-03T02:29:01.562Z,100.00
2023-03-03T02:31:30.584Z,100.00
2023-03-03T02:33:58.371Z,100.00
2023-03-03T02:36:26.395Z,100.00
2023-03-03T02:39:09.077Z,100.00
2023-03-03T02:41:44.840Z,100.00
2023-03-03T02:44:15.925Z,100.00
2023-03-03T02:46:46.911Z,100.00
2023-03-03T02:49:16.504Z,100.00
2023-03-03T02:51:43.657Z,100.00
2023-03-03T02:54:12.926Z,100.00
2023-03-03T02:56:39.895Z,100.00
2023-03-03T02:59:07.461Z,100.00
2023-03-03T03:01:39.398Z,100.00
2023-03-03T03:04:12.168Z,100.00
2023-03-03T03:06:43.132Z,100.00
2023-03-03T03:09:12.110Z,100.00
2023-03-03T03:11:39.496Z,100.00
2023-03-03T03:14:08.155Z,100.00
2023-03-03T03:16:35.783Z,100.00
2023-03-03T03:19:03.627Z,100.00
2023-03-03T03:21:31.507Z,100.00
2023-03-03T03:23:59.502Z,100.00
2023-03-03T03:26:26.775Z,100.00
2023-03-03T03:28:53.798Z,100.00
2023-03-03T03:31:21.076Z,100.00
2023-03-03T03:33:47.906Z,100.00
2023-03-03T03:36:16.622Z,100.00
2023-03-03T03:38:43.317Z,100.00
2023-03-03T03:41:12.267Z,100.00
2023-03-03T03:43:38.943Z,100.00
2023-03-03T03:46:05.935Z,100.00
2023-03-03T03:48:33.639Z,100.00
2023-03-03T03:51:01.855Z,100.00
2023-03-03T03:53:29.323Z,100.00
2023-03-03T03:55:56.010Z,100.00
2023-03-03T03:58:22.661Z,100.00
2023-03-03T04:01:03.475Z,100.00
2023-03-03T04:03:30.185Z,100.00
2023-03-03T04:05:56.901Z,100.00
2023-03-03T04:08:23.878Z,100.00
2023-03-03T04:10:50.744Z,100.00
2023-03-03T04:13:17.809Z,100.00
2023-03-03T04:15:45.141Z,100.00
2023-03-03T04:18:12.094Z,100.00
2023-03-03T04:20:40.165Z,100.00
2023-03-03T04:23:07.667Z,100.00
2023-03-03T04:25:34.380Z,100.00
2023-03-03T04:28:03.948Z,100.00
2023-03-03T04:30:32.474Z,100.00
2023-03-03T04:32:59.362Z,100.00
2023-03-03T04:35:27.386Z,100.00
2023-03-03T04:37:54.168Z,100.00
2023-03-03T04:40:20.887Z,100.00
2023-03-03T04:42:50.220Z,100.00
2023-03-03T04:45:17.241Z,100.00
2023-03-03T04:47:44.208Z,100.00
2023-03-03T04:50:11.596Z,100.00
2023-03-03T04:52:38.483Z,100.00
2023-03-03T04:55:09.346Z,100.00
2023-03-03T04:57:38.031Z,100.00
2023-03-03T05:00:06.613Z,100.00
2023-03-03T05:02:33.177Z,100.00
2023-03-03T05:05:00.652Z,100.00
2023-03-03T05:07:27.222Z,100.00
2023-03-03T05:09:53.778Z,100.00
2023-03-03T05:12:21.192Z,100.00
2023-03-03T05:14:47.747Z,100.00
2023-03-03T05:17:14.450Z,100.00
2023-03-03T05:19:41.164Z,100.00
2023-03-03T05:22:07.966Z,100.00
2023-03-03T05:24:34.497Z,100.00
2023-03-03T05:27:01.470Z,100.00
2023-03-03T05:29:28.582Z,100.00
2023-03-03T05:31:55.152Z,100.00
2023-03-03T05:34:21.824Z,100.00
2023-03-03T05:36:51.536Z,100.00
2023-03-03T05:39:18.175Z,100.00
2023-03-03T05:41:44.762Z,100.00
2023-03-03T05:44:11.313Z,100.00
2023-03-03T05:46:37.834Z,100.00
2023-03-03T05:49:04.386Z,100.00
2023-03-03T05:51:30.996Z,100.00
2023-03-03T05:53:57.607Z,100.00
2023-03-03T05:56:24.149Z,100.00
2023-03-03T05:58:50.727Z,100.00
2023-03-03T06:01:17.380Z,100.00
2023-03-03T06:03:43.888Z,100.00
2023-03-03T06:06:10.514Z,100.00
2023-03-03T06:08:37.056Z,100.00
2023-03-03T06:11:03.783Z,100.00
2023-03-03T06:13:30.419Z,100.00
2023-03-03T06:15:56.990Z,100.00
2023-03-03T06:18:23.611Z,100.00
2023-03-03T06:20:54.528Z,100.00
2023-03-03T06:23:21.774Z,100.00
2023-03-03T06:25:48.443Z,100.00
2023-03-03T06:28:15.106Z,100.00
2023-03-03T06:30:41.712Z,100.00
2023-03-03T06:33:08.198Z,100.00
2023-03-03T06:35:34.909Z,100.00
2023-03-03T06:38:01.572Z,100.00
2023-03-03T06:40:28.271Z,100.00
2023-03-03T06:42:55.358Z,100.00
2023-03-03T06:45:21.939Z,100.00
2023-03-03T06:47:48.495Z,100.00
2023-03-03T06:50:20.138Z,100.00
2023-03-03T06:52:46.914Z,100.00
2023-03-03T06:55:20.623Z,100.00
2023-03-03T06:57:47.250Z,100.00
2023-03-03T07:00:25.324Z,100.00
2023-03-03T07:03:05.931Z,100.00
2023-03-03T07:05:34.353Z,100.00
2023-03-03T07:08:00.881Z,100.00
2023-03-03T07:10:30.172Z,100.00
2023-03-03T07:13:02.179Z,100.00
2023-03-03T07:15:37.622Z,100.00
2023-03-03T07:18:21.489Z,100.00
2023-03-03T07:20:48.220Z,100.00
2023-03-03T07:23:27.794Z,100.00
2023-03-03T07:25:55.123Z,100.00
2023-03-03T07:28:28.314Z,100.00
2023-03-03T07:30:57.019Z,100.00
2023-03-03T07:33:30.356Z,100.00
2023-03-03T07:35:59.450Z,100.00
2023-03-03T07:38:40.402Z,100.00
2023-03-03T07:41:25.243Z,100.00
2023-03-03T07:44:18.103Z,100.00
2023-03-03T07:46:48.151Z,100.00
2023-03-03T07:49:33.869Z,100.00
2023-03-03T07:52:01.604Z,100.00
2023-03-03T07:54:43.539Z,100.00
2023-03-03T07:57:09.992Z,100.00
2023-03-03T07:59:38.518Z,100.00
2023-03-03T08:02:25.727Z,100.00
2023-03-03T08:04:52.690Z,100.00
2023-03-03T08:07:22.267Z,100.00
2023-03-03T08:10:01.912Z,100.00
2023-03-03T08:12:33.791Z,100.00
2023-03-03T08:15:24.416Z,100.00
2023-03-03T08:17:53.221Z,100.00
2023-03-03T08:20:25.660Z,100.00
2023-03-03T08:22:52.302Z,100.00
2023-03-03T08:25:18.878Z,100.00
2023-03-03T08:27:45.439Z,100.00
2023-03-03T08:30:12.425Z,100.00
2023-03-03T08:32:39.165Z,100.00
2023-03-03T08:35:06.184Z,100.00
2023-03-03T08:37:32.707Z,100.00
2023-03-03T08:39:59.404Z,100.00
2023-03-03T08:42:26.096Z,100.00
2023-03-03T08:44:52.640Z,100.00
2023-03-03T08:47:20.543Z,100.00
2023-03-03T08:49:47.748Z,100.00
2023-03-03T08:52:14.281Z,100.00
2023-03-03T08:54:40.868Z,100.00
2023-03-03T08:57:07.959Z,100.00
2023-03-03T08:59:38.912Z,100.00
2023-03-03T09:02:06.685Z,100.00
2023-03-03T09:04:33.519Z,100.00
2023-03-03T09:07:00.384Z,100.00
2023-03-03T09:09:26.985Z,100.00
2023-03-03T09:11:58.708Z,100.00
2023-03-03T09:14:28.978Z,100.00
2023-03-03T09:16:57.151Z,100.00
2023-03-03T09:19:29.653Z,100.00
2023-03-03T09:22:16.972Z,100.00
2023-03-03T09:24:43.586Z,100.00
2023-03-03T09:27:30.827Z,100.00
2023-03-03T09:30:33.236Z,100.00
2023-03-03T09:32:59.841Z,100.00
2023-03-03T09:35:26.866Z,100.00
2023-03-03T09:37:53.542Z,100.00
2023-03-03T09:40:52.654Z,100.00
2023-03-03T09:43:51.249Z,100.00
2023-03-03T09:46:42.957Z,100.00
2023-03-03T09:49:12.530Z,100.00
2023-03-03T09:51:42.059Z,100.00
2023-03-03T09:54:41.814Z,100.00
2023-03-03T09:57:39.792Z,100.00
2023-03-03T10:00:45.915Z,100.00
2023-03-03T10:03:32.134Z,100.00
2023-03-03T10:06:19.958Z,100.00
2023-03-03T10:09:33.996Z,100.00
2023-03-03T10:12:28.490Z,100.00
2023-03-03T10:15:07.522Z,100.00
2023-03-03T10:17:43.254Z,100.00
2023-03-03T10:20:09.740Z,100.00
2023-03-03T10:22:48.612Z,100.00
2023-03-03T10:25:53.020Z,100.00
2023-03-03T10:28:44.419Z,100.00
2023-03-03T10:31:39.219Z,100.00
2023-03-03T10:34:41.442Z,100.00
2023-03-03T10:37:38.728Z,100.00
2023-03-03T10:40:16.299Z,100.00
2023-03-03T10:43:01.688Z,100.00
2023-03-03T10:45:48.636Z,100.00
2023-03-03T10:48:39.800Z,100.00
2023-03-03T10:51:33.282Z,100.00
2023-03-03T10:54:23.957Z,100.00
2023-03-03T10:56:55.650Z,100.00
2023-03-03T10:59:58.848Z,100.00
2023-03-03T11:02:37.186Z,100.00
2023-03-03T11:05:29.868Z,100.00
2023-03-03T11:08:02.238Z,100.00
2023-03-03T11:10:44.091Z,97.96
2023-03-03T11:13:26.193Z,90.64
2023-03-03T11:16:09.769Z,70.07
2023-03-03T11:18:45.543Z,73.49
2023-03-03T11:21:47.627Z,74.81
2023-03-03T11:24:39.475Z,67.69
2023-03-03T11:27:32.973Z,61.24
2023-03-03T11:30:18.840Z,58.16
2023-03-03T11:33:35.441Z,54.49
2023-03-03T11:36:07.561Z,52.34
2023-03-03T11:38:40.197Z,53.95
2023-03-03T11:41:09.593Z,51.19
2023-03-03T11:44:12.948Z,48.32
2023-03-03T11:46:46.397Z,49.99
2023-03-03T11:49:36.222Z,48.70
2023-03-03T11:52:08.769Z,47.00
2023-03-03T11:54:53.863Z,45.73
2023-03-03T11:57:31.586Z,44.59
2023-03-03T12:00:16.343Z,43.92
2023-03-03T12:02:54.844Z,43.50
2023-03-03T12:05:47.574Z,42.17
2023-03-03T12:08:16.887Z,40.46
2023-03-03T12:10:57.689Z,38.97
2023-03-03T12:13:36.668Z,37.63
2023-03-03T12:16:22.145Z,37.24
2023-03-03T12:18:59.579Z,36.60
2023-03-03T12:21:46.548Z,37.25
2023-03-03T12:24:31.657Z,36.11
2023-03-03T12:27:14.589Z,35.13
2023-03-03T12:30:07.207Z,35.57
2023-03-03T12:32:39.753Z,35.36
2023-03-03T12:35:20.488Z,35.97
2023-03-03T12:37:53.005Z,35.50
2023-03-03T12:40:19.560Z,36.84
2023-03-03T12:43:07.867Z,36.19
2023-03-03T12:45:54.186Z,35.77
2023-03-03T12:48:46.436Z,35.18
2023-03-03T12:51:32.576Z,34.21
2023-03-03T12:54:36.909Z,33.96
2023-03-03T12:57:03.591Z,33.09
2023-03-03T12:59:54.673Z,33.46
2023-03-03T13:02:47.284Z,32.80
2023-03-03T13:05:40.753Z,33.17
2023-03-03T13:08:33.910Z,32.26
2023-03-03T13:11:43.829Z,32.05
2023-03-03T13:14:22.206Z,31.50
2023-03-03T13:17:09.434Z,31.80
2023-03-03T13:19:43.749Z,31.51
2023-03-03T13:22:34.936Z,31.60
2023-03-03T13:25:34.230Z,31.16
2023-03-03T13:28:07.416Z,30.49
2023-03-03T13:30:38.337Z,32.09
2023-03-03T13:33:26.929Z,33.15
2023-03-03T13:35:55.076Z,32.39
2023-03-03T13:38:27.895Z,30.89
2023-03-03T13:41:04.229Z,34.67
2023-03-03T13:43:38.746Z,34.61
2023-03-03T13:46:17.981Z,32.36
2023-03-03T13:48:56.099Z,31.17
2023-03-03T13:51:35.297Z,32.92
2023-03-03T13:54:14.120Z,36.20
2023-03-03T13:57:04.322Z,36.98
2023-03-03T13:59:50.179Z,38.98
2023-03-03T14:02:19.794Z,36.36
2023-03-03T14:04:58.726Z,34.43
2023-03-03T14:07:45.090Z,33.48
2023-03-03T14:10:18.303Z,33.76
2023-03-03T14:12:57.256Z,34.06
2023-03-03T14:15:41.933Z,33.97
2023-03-03T14:18:34.600Z,36.42
2023-03-03T14:21:10.967Z,34.36
2023-03-03T14:23:55.649Z,33.72
2023-03-03T14:26:22.333Z,33.44
2023-03-03T14:28:52.396Z,35.58
2023-03-03T14:31:31.545Z,38.96
2023-03-03T14:34:06.116Z,37.80
2023-03-03T14:36:38.506Z,38.60
2023-03-03T14:39:28.278Z,39.40
2023-03-03T14:41:57.488Z,37.98
2023-03-03T14:44:30.161Z,39.07
2023-03-03T14:47:05.980Z,41.27
2023-03-03T14:49:36.741Z,43.33
2023-03-03T14:52:09.734Z,45.27
2023-03-03T14:54:42.730Z,47.17
2023-03-03T14:57:41.711Z,49.65
2023-03-03T15:00:31.789Z,51.35
2023-03-03T15:03:23.338Z,52.47
2023-03-03T15:05:52.198Z,53.68
2023-03-03T15:08:32.888Z,52.63
2023-03-03T15:11:36.392Z,53.73
2023-03-03T15:14:18.429Z,54.29
2023-03-03T15:16:45.265Z,55.60
2023-03-03T15:19:33.506Z,56.69
2023-03-03T15:22:18.746Z,55.34
2023-03-03T15:25:15.025Z,54.05
2023-03-03T15:28:13.323Z,49.94
2023-03-03T15:30:53.255Z,47.95
2023-03-03T15:33:33.441Z,48.43
2023-03-03T15:36:04.378Z,48.01
2023-03-03T15:38:59.271Z,46.17
2023-03-03T15:41:45.004Z,44.34
2023-03-03T15:44:32.484Z,42.01
2023-03-03T15:47:25.709Z,42.50
2023-03-03T15:50:04.826Z,44.72
2023-03-03T15:52:56.761Z,46.57
2023-03-03T15:55:49.795Z,48.62
2023-03-03T15:58:19.266Z,50.17
2023-03-03T16:00:45.765Z,50.92
2023-03-03T16:03:31.276Z,52.62
2023-03-03T16:06:12.225Z,53.07
2023-03-03T16:08:44.547Z,55.24
2023-03-03T16:11:39.275Z,55.62
2023-03-03T16:14:30.127Z,57.08
2023-03-03T16:17:21.066Z,58.95
2023-03-03T16:20:01.140Z,60.95
2023-03-03T16:22:30.608Z,65.52
2023-03-03T16:25:23.552Z,67.08
2023-03-03T16:28:20.387Z,70.66
2023-03-03T16:31:03.212Z,73.35
2023-03-03T16:33:43.937Z,76.74
2023-03-03T16:36:38.929Z,79.33
2023-03-03T16:39:30.105Z,81.06
2023-03-03T16:42:07.873Z,78.54
2023-03-03T16:44:45.842Z,79.29
2023-03-03T16:47:26.074Z,80.32
2023-03-03T16:50:08.047Z,83.47
2023-03-03T16:52:48.119Z,87.28
2023-03-03T16:55:36.493Z,89.88
2023-03-03T16:58:24.064Z,92.24
2023-03-03T17:01:01.176Z,94.37
2023-03-03T17:03:52.990Z,97.52
2023-03-03T17:06:28.987Z,99.31
2023-03-03T17:09:32.196Z,100.00
2023-03-03T17:12:08.532Z,100.00
2023-03-03T17:14:59.294Z,100.00
2023-03-03T17:17:34.512Z,100.00
2023-03-03T17:20:19.940Z,100.00
2023-03-03T17:23:17.653Z,100.00
2023-03-03T17:26:05.457Z,100.00
2023-03-03T17:28:44.057Z,100.00
2023-03-03T17:31:23.589Z,100.00
2023-03-03T17:34:09.035Z,100.00
2023-03-03T17:36:46.789Z,100.00
2023-03-03T17:39:13.348Z,100.00
2023-03-03T17:42:09.198Z,100.00
2023-03-03T17:45:15.381Z,100.00
2023-03-03T17:48:03.317Z,100.00
2023-03-03T17:50:45.114Z,100.00
2023-03-03T17:53:40.926Z,100.00
2023-03-03T17:56:28.081Z,100.00
2023-03-03T17:59:18.952Z,100.00
2023-03-03T18:02:00.712Z,100.00
2023-03-03T18:04:42.520Z,100.00
2023-03-03T18:07:42.397Z,100.00
2023-03-03T18:10:53.613Z,100.00
2023-03-03T18:13:35.345Z,100.00
2023-03-03T18:16:18.803Z,100.00
2023-03-03T18:19:17.131Z,100.00
2023-03-03T18:21:58.649Z,100.00
2023-03-03T18:24:25.177Z,100.00
2023-03-03T18:26:56.013Z,100.00
2023-03-03T18:29:27.781Z,100.00
2023-03-03T18:31:57.414Z,100.00
2023-03-03T18:34:33.546Z,100.00
2023-03-03T18:37:40.798Z,100.00
2023-03-03T18:40:10.409Z,100.00
2023-03-03T18:42:42.467Z,100.00
2023-03-03T18:45:15.049Z,100.00
2023-03-03T18:48:00.726Z,100.00
2023-03-03T18:50:34.268Z,100.00
2023-03-03T18:53:30.500Z,100.00
2023-03-03T18:55:59.801Z,100.00
2023-03-03T18:58:26.456Z,100.00
2023-03-03T19:00:59.867Z,100.00
2023-03-03T19:03:33.726Z,100.00
2023-03-03T19:06:01.520Z,100.00
2023-03-03T19:08:45.924Z,100.00
2023-03-03T19:11:32.309Z,100.00
2023-03-03T19:14:25.626Z,100.00
2023-03-03T19:16:53.804Z,100.00
2023-03-03T19:19:23.676Z,100.00
2023-03-03T19:22:11.925Z,100.00
2023-03-03T19:24:38.653Z,100.00
2023-03-03T19:27:32.777Z,100.00
2023-03-03T19:30:22.274Z,100.00
2023-03-03T19:33:21.245Z,100.00
2023-03-03T19:35:57.205Z,100.00
2023-03-03T19:38:51.261Z,100.00
2023-03-03T19:41:40.005Z,100.00
2023-03-03T19:44:41.893Z,100.00
2023-03-03T19:47:53.110Z,100.00
2023-03-03T19:50:44.331Z,100.00
2023-03-03T19:53:18.449Z,100.00
2023-03-03T19:56:19.668Z,100.00
2023-03-03T19:59:08.214Z,100.00
2023-03-03T20:01:53.590Z,100.00
2023-03-03T20:04:30.631Z,100.00
2023-03-03T20:07:03.275Z,100.00
2023-03-03T20:09:36.254Z,100.00
2023-03-03T20:12:19.360Z,100.00
2023-03-03T20:15:13.907Z,100.00
2023-03-03T20:18:24.908Z,100.00
2023-03-03T20:21:13.048Z,100.00
2023-03-03T20:23:58.903Z,100.00
2023-03-03T20:26:43.693Z,100.00
2023-03-03T20:29:34.976Z,100.00
2023-03-03T20:32:14.139Z,100.00
2023-03-03T20:35:10.818Z,100.00
2023-03-03T20:37:49.528Z,100.00
2023-03-03T20:40:36.266Z,100.00
2023-03-03T20:43:11.714Z,100.00
2023-03-03T20:45:50.443Z,100.00
2023-03-03T20:48:50.960Z,100.00
2023-03-03T20:51:53.037Z,100.00
2023-03-03T20:54:59.920Z,100.00
2023-03-03T20:57:53.939Z,100.00
2023-03-03T21:00:24.499Z,100.00
2023-03-03T21:03:06.313Z,100.00
2023-03-03T21:05:32.966Z,100.00
2023-03-03T21:08:01.859Z,100.00
2023-03-03T21:10:31.754Z,100.00
2023-03-03T21:13:33.572Z,100.00
2023-03-03T21:16:06.051Z,100.00
2023-03-03T21:18:32.610Z,100.00
2023-03-03T21:20:59.169Z,100.00
2023-03-03T21:23:25.830Z,100.00
2023-03-03T21:25:58.724Z,100.00
2023-03-03T21:28:32.588Z,100.00
2023-03-03T21:30:58.993Z,100.00
2023-03-03T21:33:54.421Z,100.00
2023-03-03T21:36:25.787Z,100.00
2023-03-03T21:38:53.683Z,100.00
2023-03-03T21:41:20.907Z,100.00
2023-03-03T21:43:50.259Z,100.00
2023-03-03T21:46:24.806Z,100.00
2023-03-03T21:48:52.509Z,100.00
2023-03-03T21:51:20.377Z,100.00
2023-03-03T21:53:47.641Z,100.00
2023-03-03T21:56:14.323Z,100.00
2023-03-03T21:58:41.962Z,100.00
2023-03-03T22:01:09.102Z,100.00
2023-03-03T22:03:35.992Z,100.00
2023-03-03T22:06:02.829Z,100.00
2023-03-03T22:08:29.589Z,100.00
2023-03-03T22:10:56.455Z,100.00
2023-03-03T22:13:24.363Z,100.00
2023-03-03T22:15:51.651Z,100.00
2023-03-03T22:18:19.370Z,100.00
2023-03-03T22:20:47.461Z,100.00
2023-03-03T22:23:14.946Z,100.00
2023-03-03T22:25:42.293Z,100.00
2023-03-03T22:28:09.463Z,100.00
2023-03-03T22:30:39.538Z,100.00
2023-03-03T22:33:06.096Z,100.00
2023-03-03T22:35:32.723Z,100.00
2023-03-03T22:37:59.599Z,100.00
2023-03-03T22:40:26.285Z,100.00
2023-03-03T22:42:52.993Z,100.00
2023-03-03T22:45:19.615Z,100.00
2023-03-03T22:47:46.256Z,100.00
2023-03-03T22:50:13.546Z,100.00
2023-03-03T22:52:40.152Z,100.00
2023-03-03T22:55:07.328Z,100.00
2023-03-03T22:57:33.968Z,100.00
2023-03-03T23:00:02.396Z,100.00
2023-03-03T23:02:29.904Z,100.00
2023-03-03T23:05:01.672Z,100.00
2023-03-03T23:07:29.154Z,100.00
2023-03-03T23:09:56.387Z,100.00
2023-03-03T23:12:23.765Z,100.00
2023-03-03T23:14:50.403Z,100.00
2023-03-03T23:17:16.999Z,100.00
2023-03-03T23:19:46.080Z,100.00
2023-03-03T23:22:13.633Z,100.00
2023-03-03T23:24:41.054Z,100.00
2023-03-03T23:27:09.055Z,100.00
2023-03-03T23:29:35.798Z,100.00
2023-03-03T23:32:03.650Z,100.00
2023-03-03T23:34:31.156Z,100.00
2023-03-03T23:36:57.958Z,100.00
2023-03-03T23:39:24.520Z,100.00
2023-03-03T23:41:51.167Z,100.00
2023-03-03T23:44:17.843Z,100.00
2023-03-03T23:46:45.257Z,100.00
2023-03-03T23:49:11.933Z,100.00
2023-03-03T23:51:38.539Z,100.00
2023-03-03T23:54:05.177Z,100.00
2023-03-03T23:56:31.655Z,100.00
2023-03-03T23:58:58.226Z,100.00
